sensor_id;sensor_type;location;lat;lon;timestamp;P1;durP1;ratioP1;P2;durP2;ratioP2
82777;SDS011;72510;45.128;20.734;2024-02-15T00:05:37;71.43;;;33.80;;
82777;SDS011;72510;45.128;20.734;2024-02-15T00:15:39;60.08;;;29.73;;
82777;SDS011;72510;45.128;20.734;2024-02-15T00:25:41;61.00;;;29.90;;
82777;SDS011;72510;45.128;20.734;2024-02-15T00:35:45;53.13;;;25.30;;
82777;SDS011;72510;45.128;20.734;2024-02-15T00:45:47;92.20;;;42.95;;
82777;SDS011;72510;45.128;20.734;2024-02-15T00:55:49;80.55;;;39.38;;
82777;SDS011;72510;45.128;20.734;2024-02-15T01:05:50;146.57;;;62.83;;
82777;SDS011;72510;45.128;20.734;2024-02-15T01:15:52;168.30;;;76.28;;
82777;SDS011;72510;45.128;20.734;2024-02-15T01:25:53;123.32;;;54.65;;
82777;SDS011;72510;45.128;20.734;2024-02-15T01:35:55;150.20;;;57.17;;
82777;SDS011;72510;45.128;20.734;2024-02-15T01:46:08;53.58;;;24.15;;
82777;SDS011;72510;45.128;20.734;2024-02-15T01:56:12;72.95;;;31.40;;
82777;SDS011;72510;45.128;20.734;2024-02-15T02:06:15;66.65;;;28.05;;
82777;SDS011;72510;45.128;20.734;2024-02-15T02:16:34;66.50;;;31.35;;
82777;SDS011;72510;45.128;20.734;2024-02-15T02:26:36;55.10;;;26.90;;
82777;SDS011;72510;45.128;20.734;2024-02-15T02:36:37;52.78;;;24.80;;
82777;SDS011;72510;45.128;20.734;2024-02-15T02:46:38;48.15;;;25.08;;
82777;SDS011;72510;45.128;20.734;2024-02-15T02:56:43;49.00;;;22.85;;
82777;SDS011;72510;45.128;20.734;2024-02-15T03:06:46;46.30;;;22.30;;
82777;SDS011;72510;45.128;20.734;2024-02-15T03:16:50;48.50;;;22.88;;
82777;SDS011;72510;45.128;20.734;2024-02-15T03:26:51;39.03;;;20.33;;
82777;SDS011;72510;45.128;20.734;2024-02-15T03:36:54;48.35;;;23.80;;
82777;SDS011;72510;45.128;20.734;2024-02-15T03:46:55;42.67;;;21.20;;
82777;SDS011;72510;45.128;20.734;2024-02-15T03:56:58;36.03;;;19.65;;
82777;SDS011;72510;45.128;20.734;2024-02-15T04:07:03;48.45;;;23.35;;
82777;SDS011;72510;45.128;20.734;2024-02-15T04:17:04;65.15;;;29.45;;
82777;SDS011;72510;45.128;20.734;2024-02-15T04:27:06;110.05;;;51.47;;
82777;SDS011;72510;45.128;20.734;2024-02-15T04:37:13;52.03;;;24.92;;
82777;SDS011;72510;45.128;20.734;2024-02-15T04:47:15;92.60;;;39.53;;
82777;SDS011;72510;45.128;20.734;2024-02-15T04:57:19;58.08;;;27.15;;
82777;SDS011;72510;45.128;20.734;2024-02-15T05:07:20;65.72;;;30.17;;
82777;SDS011;72510;45.128;20.734;2024-02-15T05:17:23;59.88;;;28.60;;
82777;SDS011;72510;45.128;20.734;2024-02-15T05:27:24;64.88;;;31.05;;
82777;SDS011;72510;45.128;20.734;2024-02-15T05:37:27;74.45;;;35.28;;
82777;SDS011;72510;45.128;20.734;2024-02-15T05:47:28;56.47;;;30.80;;
82777;SDS011;72510;45.128;20.734;2024-02-15T05:57:30;52.50;;;23.73;;
82777;SDS011;72510;45.128;20.734;2024-02-15T06:07:31;49.97;;;23.63;;
82777;SDS011;72510;45.128;20.734;2024-02-15T06:17:32;73.53;;;35.40;;
82777;SDS011;72510;45.128;20.734;2024-02-15T06:27:34;84.80;;;39.58;;
82777;SDS011;72510;45.128;20.734;2024-02-15T06:37:37;71.63;;;33.38;;
82777;SDS011;72510;45.128;20.734;2024-02-15T06:47:59;99.47;;;50.72;;
82777;SDS011;72510;45.128;20.734;2024-02-15T06:58:00;125.40;;;60.15;;
82777;SDS011;72510;45.128;20.734;2024-02-15T07:08:03;97.72;;;47.53;;
82777;SDS011;72510;45.128;20.734;2024-02-15T07:18:08;121.30;;;59.33;;
82777;SDS011;72510;45.128;20.734;2024-02-15T07:28:10;72.38;;;37.13;;
82777;SDS011;72510;45.128;20.734;2024-02-15T07:38:11;57.83;;;29.27;;
82777;SDS011;72510;45.128;20.734;2024-02-15T07:48:13;86.00;;;42.97;;
82777;SDS011;72510;45.128;20.734;2024-02-15T07:58:14;66.70;;;34.83;;
82777;SDS011;72510;45.128;20.734;2024-02-15T08:08:17;57.88;;;30.95;;
82777;SDS011;72510;45.128;20.734;2024-02-15T08:18:19;49.17;;;25.50;;
82777;SDS011;72510;45.128;20.734;2024-02-15T08:28:23;33.17;;;15.73;;
82777;SDS011;72510;45.128;20.734;2024-02-15T08:38:24;40.88;;;22.70;;
82777;SDS011;72510;45.128;20.734;2024-02-15T08:48:25;40.55;;;22.25;;
82777;SDS011;72510;45.128;20.734;2024-02-15T08:58:27;37.35;;;21.42;;
82777;SDS011;72510;45.128;20.734;2024-02-15T09:08:29;46.30;;;25.00;;
82777;SDS011;72510;45.128;20.734;2024-02-15T09:18:30;37.47;;;20.08;;
82777;SDS011;72510;45.128;20.734;2024-02-15T09:28:34;40.90;;;21.33;;
82777;SDS011;72510;45.128;20.734;2024-02-15T09:38:35;32.33;;;18.13;;
82777;SDS011;72510;45.128;20.734;2024-02-15T09:48:37;28.30;;;16.17;;
82777;SDS011;72510;45.128;20.734;2024-02-15T09:58:46;24.88;;;15.18;;
82777;SDS011;72510;45.128;20.734;2024-02-15T10:08:48;24.70;;;12.45;;
82777;SDS011;72510;45.128;20.734;2024-02-15T10:18:50;33.08;;;20.55;;
82777;SDS011;72510;45.128;20.734;2024-02-15T10:29:04;15.90;;;8.38;;
82777;SDS011;72510;45.128;20.734;2024-02-15T10:39:11;17.65;;;10.52;;
82777;SDS011;72510;45.128;20.734;2024-02-15T10:49:24;18.35;;;8.80;;
82777;SDS011;72510;45.128;20.734;2024-02-15T10:59:27;22.55;;;10.95;;
82777;SDS011;72510;45.128;20.734;2024-02-15T11:09:33;18.58;;;8.95;;
82777;SDS011;72510;45.128;20.734;2024-02-15T11:29:53;12.27;;;7.25;;
82777;SDS011;72510;45.128;20.734;2024-02-15T11:40:10;10.32;;;6.07;;
82777;SDS011;72510;45.128;20.734;2024-02-15T11:50:13;12.25;;;6.75;;
82777;SDS011;72510;45.128;20.734;2024-02-15T12:00:20;13.90;;;7.40;;
82777;SDS011;72510;45.128;20.734;2024-02-15T12:10:56;12.95;;;7.35;;
82777;SDS011;72510;45.128;20.734;2024-02-15T12:21:17;11.30;;;8.00;;
82777;SDS011;72510;45.128;20.734;2024-02-15T12:31:26;11.68;;;7.20;;
82777;SDS011;72510;45.128;20.734;2024-02-15T12:41:29;11.07;;;8.02;;
82777;SDS011;72510;45.128;20.734;2024-02-15T12:51:31;7.97;;;5.63;;
82777;SDS011;72510;45.128;20.734;2024-02-15T13:01:33;8.55;;;5.03;;
82777;SDS011;72510;45.128;20.734;2024-02-15T13:11:34;7.70;;;5.60;;
82777;SDS011;72510;45.128;20.734;2024-02-15T13:21:37;10.02;;;6.03;;
82777;SDS011;72510;45.128;20.734;2024-02-15T13:31:39;9.63;;;6.05;;
82777;SDS011;72510;45.128;20.734;2024-02-15T13:41:41;8.38;;;6.70;;
82777;SDS011;72510;45.128;20.734;2024-02-15T13:51:46;9.27;;;6.30;;
82777;SDS011;72510;45.128;20.734;2024-02-15T14:01:56;8.80;;;5.93;;
82777;SDS011;72510;45.128;20.734;2024-02-15T14:11:57;9.65;;;6.97;;
82777;SDS011;72510;45.128;20.734;2024-02-15T14:22:01;10.13;;;6.65;;
82777;SDS011;72510;45.128;20.734;2024-02-15T14:32:11;10.02;;;6.68;;
82777;SDS011;72510;45.128;20.734;2024-02-15T14:42:31;8.07;;;6.13;;
82777;SDS011;72510;45.128;20.734;2024-02-15T14:52:35;7.80;;;6.82;;
82777;SDS011;72510;45.128;20.734;2024-02-15T15:02:40;9.95;;;5.68;;
82777;SDS011;72510;45.128;20.734;2024-02-15T15:12:44;8.73;;;5.35;;
82777;SDS011;72510;45.128;20.734;2024-02-15T15:22:46;8.52;;;5.50;;
82777;SDS011;72510;45.128;20.734;2024-02-15T15:32:47;9.50;;;5.30;;
82777;SDS011;72510;45.128;20.734;2024-02-15T15:42:56;8.60;;;5.32;;
82777;SDS011;72510;45.128;20.734;2024-02-15T15:52:58;7.78;;;4.28;;
82777;SDS011;72510;45.128;20.734;2024-02-15T16:03:03;15.32;;;6.70;;
82777;SDS011;72510;45.128;20.734;2024-02-15T16:13:05;7.25;;;4.53;;
82777;SDS011;72510;45.128;20.734;2024-02-15T16:23:07;8.88;;;5.03;;
82777;SDS011;72510;45.128;20.734;2024-02-15T16:33:08;16.65;;;8.07;;
82777;SDS011;72510;45.128;20.734;2024-02-15T16:43:09;105.15;;;37.22;;
82777;SDS011;72510;45.128;20.734;2024-02-15T16:53:11;78.57;;;28.67;;
82777;SDS011;72510;45.128;20.734;2024-02-15T17:03:12;149.98;;;50.50;;
82777;SDS011;72510;45.128;20.734;2024-02-15T17:13:16;104.72;;;35.38;;
82777;SDS011;72510;45.128;20.734;2024-02-15T17:23:17;38.85;;;16.52;;
82777;SDS011;72510;45.128;20.734;2024-02-15T17:33:19;26.05;;;11.80;;
82777;SDS011;72510;45.128;20.734;2024-02-15T17:43:20;10.40;;;5.75;;
82777;SDS011;72510;45.128;20.734;2024-02-15T17:53:21;20.98;;;10.40;;
82777;SDS011;72510;45.128;20.734;2024-02-15T18:03:23;25.38;;;12.25;;
82777;SDS011;72510;45.128;20.734;2024-02-15T18:13:26;12.05;;;6.82;;
82777;SDS011;72510;45.128;20.734;2024-02-15T18:23:29;9.10;;;4.68;;
82777;SDS011;72510;45.128;20.734;2024-02-15T18:33:30;47.30;;;17.45;;
82777;SDS011;72510;45.128;20.734;2024-02-15T18:43:33;67.72;;;25.42;;
82777;SDS011;72510;45.128;20.734;2024-02-15T18:53:35;48.38;;;20.48;;
82777;SDS011;72510;45.128;20.734;2024-02-15T19:03:36;41.35;;;19.13;;
82777;SDS011;72510;45.128;20.734;2024-02-15T19:13:37;62.60;;;29.70;;
82777;SDS011;72510;45.128;20.734;2024-02-15T19:23:43;23.67;;;11.77;;
82777;SDS011;72510;45.128;20.734;2024-02-15T19:33:46;11.93;;;6.53;;
82777;SDS011;72510;45.128;20.734;2024-02-15T19:43:49;9.98;;;5.43;;
82777;SDS011;72510;45.128;20.734;2024-02-15T19:53:52;34.53;;;12.85;;
82777;SDS011;72510;45.128;20.734;2024-02-15T20:03:54;11.48;;;6.35;;
82777;SDS011;72510;45.128;20.734;2024-02-15T20:13:56;66.28;;;21.92;;
82777;SDS011;72510;45.128;20.734;2024-02-15T20:23:58;23.15;;;10.70;;
82777;SDS011;72510;45.128;20.734;2024-02-15T20:34:06;34.65;;;13.77;;
82777;SDS011;72510;45.128;20.734;2024-02-15T20:44:07;26.88;;;11.90;;
82777;SDS011;72510;45.128;20.734;2024-02-15T20:54:10;19.10;;;8.73;;
82777;SDS011;72510;45.128;20.734;2024-02-15T21:04:11;11.90;;;6.28;;
82777;SDS011;72510;45.128;20.734;2024-02-15T21:14:13;42.10;;;16.55;;
82777;SDS011;72510;45.128;20.734;2024-02-15T21:24:14;28.95;;;12.85;;
82777;SDS011;72510;45.128;20.734;2024-02-15T21:34:16;33.08;;;14.30;;
82777;SDS011;72510;45.128;20.734;2024-02-15T21:44:20;11.27;;;6.25;;
82777;SDS011;72510;45.128;20.734;2024-02-15T21:54:23;23.65;;;10.68;;
82777;SDS011;72510;45.128;20.734;2024-02-15T22:04:24;12.82;;;6.53;;
82777;SDS011;72510;45.128;20.734;2024-02-15T22:14:28;18.52;;;8.68;;
82777;SDS011;72510;45.128;20.734;2024-02-15T22:24:30;48.38;;;23.13;;
82777;SDS011;72510;45.128;20.734;2024-02-15T22:34:32;130.13;;;58.50;;
82777;SDS011;72510;45.128;20.734;2024-02-15T22:44:33;74.13;;;33.85;;
82777;SDS011;72510;45.128;20.734;2024-02-15T22:54:35;100.57;;;44.05;;
82777;SDS011;72510;45.128;20.734;2024-02-15T23:04:38;180.25;;;80.72;;
82777;SDS011;72510;45.128;20.734;2024-02-15T23:14:41;129.90;;;56.45;;
82777;SDS011;72510;45.128;20.734;2024-02-15T23:24:43;131.80;;;58.47;;
82777;SDS011;72510;45.128;20.734;2024-02-15T23:34:44;129.55;;;55.45;;
82777;SDS011;72510;45.128;20.734;2024-02-15T23:44:47;147.57;;;66.30;;
82777;SDS011;72510;45.128;20.734;2024-02-15T23:54:48;128.95;;;57.97;;
